Time;durP1;ratioP1;P1;durP2;ratioP2;P2;SDS_P1;SDS_P2;PMS_P1;PMS_P2;Temp;Humidity;BMP_temperature;BMP_pressure;BME280_temperature;BME280_humidity;BME280_pressure;Samples;Min_cycle;Max_cycle;Signal;HPM_P1;HPM_P2
2022/03/08 00:08:27;;;;;;;11.07;8.00;;;3.90;1.00;;;;;;5926653;24;20191;-91
2022/03/08 00:11:38;;;;;;;10.00;8.43;;;3.80;1.00;;;;;;5950536;23;20183;-93
2022/03/08 00:21:32;;;;;;;9.60;8.30;;;3.90;70.70;;;;;;6024607;23;20165;-91
2022/03/08 00:38:32;;;;;;;11.43;8.90;;;3.60;99.90;;;;;;6127381;23;20169;-93
2022/03/08 00:41:23;;;;;;;11.17;8.73;;;3.60;99.90;;;;;;6102949;23;20163;-93
2022/03/08 00:58:48;;;;;;;;;;;;;;;;;;;;;
2022/03/08 01:05:45;;;;;;;12.13;9.03;;;3.80;92.60;;;;;;5851205;24;20170;-92
2022/03/08 01:12:22;;;;;;;11.23;9.33;;;3.60;99.90;;;;;;5746404;24;20231;-94
2022/03/08 01:47:08;;;;;;;;;;;;;;;;;;;;;
2022/03/08 02:00:35;;;;;;;10.77;8.43;;;3.50;99.90;;;;;;5875304;24;20199;-93
2022/03/08 02:07:27;;;;;;;10.20;8.50;;;3.40;99.90;;;;;;5901730;24;20198;-93
2022/03/08 03:10:23;;;;;;;10.50;8.60;;;3.20;87.20;;;;;;5937246;24;20206;-94
2022/03/08 03:24:22;;;;;;;11.30;7.90;;;3.00;99.90;;;;;;6029980;23;20222;-92
2022/03/08 03:27:40;;;;;;;;;;;;;;;;;;;;;
2022/03/08 03:37:56;;;;;;;11.50;7.73;;;3.20;99.90;;;;;;6039537;23;20220;-92
2022/03/08 03:40:28;;;;;;;11.43;8.07;;;3.30;96.40;;;;;;6017876;23;20164;-92
2022/03/08 03:43:04;;;;;;;10.10;8.23;;;3.40;75.70;;;;;;6080590;23;20191;-93
2022/03/08 03:45:32;;;;;;;8.50;7.43;;;3.30;99.90;;;;;;6186480;23;20148;-91
2022/03/08 03:48:01;;;;;;;11.43;8.70;;;3.40;99.90;;;;;;6187698;23;20146;-90
2022/03/08 03:50:33;;;;;;;10.33;7.97;;;3.40;99.90;;;;;;6187662;23;20149;-92
2022/03/08 03:53:10;;;;;;;11.70;7.90;;;3.40;95.10;;;;;;6187555;23;20148;-92
2022/03/08 03:55:38;;;;;;;10.83;8.80;;;3.30;99.90;;;;;;6187711;23;20142;-91
2022/03/08 03:58:17;;;;;;;9.53;7.97;;;3.20;99.90;;;;;;6178151;23;20158;-93
2022/03/08 04:00:50;;;;;;;11.07;8.27;;;3.20;99.90;;;;;;6162395;23;20165;-93
2022/03/08 04:03:19;;;;;;;12.03;8.57;;;3.20;99.90;;;;;;6163616;23;20157;-92
2022/03/08 04:05:51;;;;;;;10.53;8.13;;;3.20;99.90;;;;;;6164122;23;20152;-93
2022/03/08 04:08:25;;;;;;;8.93;7.90;;;3.30;99.90;;;;;;6163312;23;20196;-92
2022/03/08 04:10:51;;;;;;;10.13;7.93;;;3.30;99.90;;;;;;6164336;23;20161;-92
2022/03/08 04:13:21;;;;;;;10.00;7.73;;;3.30;99.90;;;;;;6171181;23;20154;-91
2022/03/08 04:15:47;;;;;;;8.87;7.20;;;3.20;99.90;;;;;;6179763;23;20133;-92
2022/03/08 04:18:14;;;;;;;9.97;7.70;;;3.20;99.90;;;;;;6176519;23;20232;-92
2022/03/08 04:20:47;;;;;;;10.07;8.07;;;3.20;99.90;;;;;;6212429;23;20157;-92
2022/03/08 04:23:13;;;;;;;10.47;8.17;;;3.20;99.90;;;;;;6195628;23;20129;-92
2022/03/08 04:25:39;;;;;;;11.40;7.70;;;3.10;99.90;;;;;;6206197;23;20207;-92
2022/03/08 04:28:15;;;;;;;13.93;7.67;;;3.10;99.90;;;;;;6194556;23;20188;-93
2022/03/08 04:30:41;;;;;;;11.93;8.33;;;3.10;99.90;;;;;;6195993;23;20195;-92
2022/03/08 04:33:09;;;;;;;10.63;7.60;;;3.10;99.90;;;;;;6197468;23;20653;-92
2022/03/08 04:35:35;;;;;;;10.20;7.60;;;3.10;99.90;;;;;;6210324;23;20173;-93
2022/03/08 04:38:01;;;;;;;10.30;8.10;;;3.10;99.90;;;;;;6201167;23;20161;-93
2022/03/08 04:40:28;;;;;;;9.10;6.93;;;3.10;99.90;;;;;;6168780;23;20268;-93
2022/03/08 04:42:53;;;;;;;11.60;8.30;;;3.10;99.90;;;;;;6195170;23;20167;-92
2022/03/08 04:45:20;;;;;;;11.17;7.50;;;3.00;99.90;;;;;;6200891;23;20180;-92
2022/03/08 04:47:49;;;;;;;10.73;8.17;;;3.10;99.90;;;;;;6216945;23;20207;-92
2022/03/08 04:50:16;;;;;;;10.60;8.37;;;3.20;99.90;;;;;;6215516;23;20149;-92
2022/03/08 04:52:47;;;;;;;15.60;8.70;;;3.20;99.90;;;;;;6196100;23;20184;-91
2022/03/08 04:55:18;;;;;;;15.57;8.20;;;3.20;99.90;;;;;;6197846;23;20152;-92
2022/03/08 04:57:45;;;;;;;12.03;8.10;;;3.20;99.90;;;;;;6211327;23;20137;-92
2022/03/08 05:00:12;;;;;;;9.90;8.27;;;3.10;99.90;;;;;;6199290;23;20161;-91
2022/03/08 05:02:42;;;;;;;9.43;7.77;;;3.00;99.90;;;;;;6195486;23;20191;-91
2022/03/08 05:05:11;;;;;;;9.50;7.90;;;3.00;99.90;;;;;;6194567;23;20149;-92
2022/03/08 05:07:37;;;;;;;11.47;7.90;;;3.00;99.90;;;;;;6199201;23;20208;-92
2022/03/08 05:10:04;;;;;;;9.40;7.63;;;2.90;99.90;;;;;;6227541;23;20176;-91
2022/03/08 05:12:37;;;;;;;10.27;7.40;;;3.00;99.90;;;;;;6194323;23;20161;-92
2022/03/08 05:15:07;;;;;;;11.43;7.90;;;3.00;99.90;;;;;;6213055;23;20157;-92
2022/03/08 05:17:38;;;;;;;11.63;8.20;;;3.00;99.90;;;;;;6224741;23;20155;-93
2022/03/08 05:20:05;;;;;;;11.57;8.07;;;2.90;1.00;;;;;;6220526;23;20161;-92
2022/03/08 05:22:31;;;;;;;12.30;8.60;;;2.70;1.00;;;;;;6194564;23;20156;-92
2022/03/08 05:24:57;;;;;;;11.27;8.63;;;2.90;1.40;;;;;;6194323;23;20160;-92
2022/03/08 05:27:23;;;;;;;14.43;7.70;;;2.80;58.20;;;;;;6194525;23;20464;-93
2022/03/08 05:29:52;;;;;;;12.50;8.57;;;2.60;64.30;;;;;;6193844;23;20220;-92
2022/03/08 05:32:18;;;;;;;11.63;8.10;;;2.60;87.50;;;;;;6195096;23;20161;-92
2022/03/08 05:34:45;;;;;;;12.67;8.20;;;2.70;1.00;;;;;;6194447;23;20157;-92
2022/03/08 05:37:11;;;;;;;11.30;8.77;;;2.50;1.00;;;;;;6195994;23;20153;-92
2022/03/08 05:39:36;;;;;;;16.17;11.87;;;2.50;37.20;;;;;;6212210;22;20184;-92
2022/03/08 05:42:03;;;;;;;13.03;9.17;;;2.40;99.90;;;;;;6216653;23;20169;-92
2022/03/08 05:44:32;;;;;;;12.20;8.13;;;2.40;99.90;;;;;;6203792;23;20249;-92
2022/03/08 05:47:01;;;;;;;11.43;8.27;;;2.20;99.90;;;;;;6222451;23;20207;-92
2022/03/08 05:49:29;;;;;;;9.63;8.03;;;2.10;99.90;;;;;;6194339;23;20204;-92
2022/03/08 05:51:56;;;;;;;10.73;7.83;;;2.00;1.00;;;;;;6195365;23;20149;-92
2022/03/08 05:54:22;;;;;;;10.93;8.30;;;2.00;1.00;;;;;;6193832;23;20156;-92
2022/03/08 05:56:49;;;;;;;11.17;7.47;;;2.00;1.00;;;;;;6220787;23;20137;-92
2022/03/08 05:59:15;;;;;;;12.77;9.50;;;2.30;1.00;;;;;;6194132;23;20160;-91
2022/03/08 06:01:41;;;;;;;13.87;8.60;;;2.10;1.00;;;;;;6193076;23;20216;-92
2022/03/08 06:04:07;;;;;;;15.73;9.23;;;2.10;1.00;;;;;;6199118;23;20156;-93
2022/03/08 06:06:33;;;;;;;16.33;10.00;;;2.10;50.30;;;;;;6207068;23;20149;-92
2022/03/08 06:08:59;;;;;;;14.13;9.57;;;2.10;99.90;;;;;;6207543;23;20272;-91
2022/03/08 06:11:25;;;;;;;14.60;9.40;;;1.90;1.00;;;;;;6197928;23;20236;-92
2022/03/08 06:13:51;;;;;;;13.90;8.63;;;1.70;99.90;;;;;;6199349;23;20200;-92
2022/03/08 06:23:45;;;;;;;12.27;7.87;;;1.90;1.00;;;;;;6100254;23;20168;-92
2022/03/08 06:26:11;;;;;;;10.90;8.57;;;2.00;99.90;;;;;;6193064;22;20141;-92
2022/03/08 06:28:37;;;;;;;11.07;7.60;;;2.10;1.00;;;;;;6198103;23;20232;-91
2022/03/08 06:31:04;;;;;;;18.13;8.90;;;2.20;1.00;;;;;;6206775;23;20582;-90
2022/03/08 06:33:33;;;;;;;15.47;8.97;;;2.30;1.00;;;;;;6218103;23;20133;-90
2022/03/08 06:36:02;;;;;;;10.33;8.00;;;2.40;1.00;;;;;;6216364;22;20169;-89
2022/03/08 06:38:28;;;;;;;12.43;7.87;;;2.60;99.90;;;;;;6215251;23;20157;-89
2022/03/08 06:40:57;;;;;;;10.43;7.70;;;2.50;99.90;;;;;;6197382;23;20153;-93
2022/03/08 06:43:24;;;;;;;10.50;6.93;;;2.50;1.00;;;;;;6222414;22;20130;-91
2022/03/08 06:46:20;;;;;;;11.03;8.43;;;2.60;1.00;;;;;;6231237;23;20138;-92
2022/03/08 06:48:55;;;;;;;11.03;8.07;;;2.60;1.00;;;;;;6191005;23;20192;-94
2022/03/08 06:51:22;;;;;;;9.83;8.20;;;2.80;1.00;;;;;;6197938;23;20156;-94
2022/03/08 06:53:48;;;;;;;10.73;7.83;;;2.80;1.00;;;;;;6226817;23;20247;-91
2022/03/08 06:56:22;;;;;;;16.83;7.60;;;2.80;1.00;;;;;;6197093;23;20195;-94
2022/03/08 06:58:48;;;;;;;9.33;7.20;;;2.90;1.00;;;;;;6227801;23;20145;-91
2022/03/08 07:01:15;;;;;;;10.43;7.67;;;2.90;1.00;;;;;;6179260;23;20194;-96
2022/03/08 07:03:42;;;;;;;14.00;8.00;;;2.90;1.00;;;;;;6198450;23;20157;-92
2022/03/08 07:06:09;;;;;;;20.20;10.13;;;3.20;1.00;;;;;;6202975;23;20159;-95
2022/03/08 07:08:37;;;;;;;13.23;7.30;;;3.10;1.00;;;;;;6226819;23;20195;-91
2022/03/08 07:11:05;;;;;;;12.87;8.50;;;3.20;99.90;;;;;;6205520;22;20153;-96
2022/03/08 07:13:32;;;;;;;12.70;7.77;;;3.20;99.90;;;;;;6203270;23;20153;-88
2022/03/08 07:15:58;;;;;;;9.23;7.13;;;3.20;99.90;;;;;;6224474;23;20151;-94
2022/03/08 07:18:32;;;;;;;12.67;7.70;;;3.30;99.90;;;;;;6225176;23;20129;-92
2022/03/08 07:21:02;;;;;;;11.37;7.40;;;3.20;99.90;;;;;;6204552;23;20224;-94
2022/03/08 07:23:27;;;;;;;11.87;7.47;;;3.50;99.90;;;;;;6203013;23;20165;-92
2022/03/08 07:25:56;;;;;;;14.17;7.83;;;3.40;99.90;;;;;;6199929;23;20145;-91
2022/03/08 07:28:23;;;;;;;11.63;6.97;;;3.60;99.90;;;;;;6205879;23;20208;-92
2022/03/08 07:30:52;;;;;;;11.40;7.43;;;3.60;99.90;;;;;;6194062;23;20160;-90
2022/03/08 07:33:20;;;;;;;11.90;8.07;;;3.70;99.90;;;;;;6198087;23;20149;-93
2022/03/08 07:35:47;;;;;;;11.90;7.33;;;3.50;99.90;;;;;;6195740;23;20172;-95
2022/03/08 07:38:16;;;;;;;13.77;8.30;;;3.60;99.90;;;;;;6178232;23;20229;-95
2022/03/08 07:40:47;;;;;;;8.23;6.97;;;3.60;99.90;;;;;;6240037;22;20196;-91
2022/03/08 07:43:34;;;;;;;13.23;7.63;;;3.80;99.90;;;;;;6216196;23;20172;-90
2022/03/08 07:46:09;;;;;;;8.67;6.90;;;3.80;99.90;;;;;;6242773;22;20834;-92
2022/03/08 07:49:00;;;;;;;11.60;7.57;;;4.00;99.90;;;;;;6215382;23;20212;-90
2022/03/08 07:51:27;;;;;;;16.07;9.30;;;4.20;24.50;;;;;;6240075;22;20185;-93
2022/03/08 07:53:53;;;;;;;9.23;7.37;;;4.20;19.80;;;;;;6205816;23;20163;-94
2022/03/08 07:56:23;;;;;;;8.93;7.27;;;4.20;1.00;;;;;;6187481;23;20168;-93
2022/03/08 07:58:49;;;;;;;18.27;8.60;;;4.10;1.00;;;;;;6182447;23;20193;-92
2022/03/08 08:01:21;;;;;;;10.10;7.73;;;4.30;1.00;;;;;;6233089;22;20213;-92
2022/03/08 08:03:47;;;;;;;11.47;7.30;;;4.00;1.00;;;;;;6214862;23;20144;-91
2022/03/08 08:06:15;;;;;;;10.00;7.83;;;4.00;1.00;;;;;;6209900;23;20153;-91
2022/03/08 08:08:51;;;;;;;9.10;6.97;;;4.00;1.00;;;;;;6204565;23;20181;-91
2022/03/08 08:11:34;;;;;;;10.77;7.63;;;4.10;1.00;;;;;;6197939;23;20652;-90
2022/03/08 08:14:05;;;;;;;7.67;6.30;;;4.20;1.00;;;;;;6195213;23;20558;-92
2022/03/08 08:16:35;;;;;;;9.47;7.00;;;4.10;1.00;;;;;;6174164;23;20160;-92
2022/03/08 08:19:07;;;;;;;8.37;6.87;;;4.50;1.00;;;;;;6210419;23;20176;-91
2022/03/08 08:21:37;;;;;;;9.73;7.17;;;4.50;1.00;;;;;;6224162;23;20216;-91
2022/03/08 08:24:32;;;;;;;;;;;;;;;;;;;;;
2022/03/08 08:27:18;;;;;;;10.73;7.30;;;4.60;1.00;;;;;;6209642;23;20188;-91
2022/03/08 08:29:52;;;;;;;10.53;6.50;;;4.50;1.00;;;;;;6217628;23;20211;-91
2022/03/08 08:32:19;;;;;;;8.87;7.30;;;4.60;1.00;;;;;;6217873;22;20170;-89
2022/03/08 08:34:46;;;;;;;9.70;7.30;;;4.70;1.00;;;;;;6243462;22;20164;-91
2022/03/08 08:37:31;;;;;;;;;;;;;;;;;;;;;
2022/03/08 08:39:57;;;;;;;11.13;7.00;;;4.90;1.00;;;;;;6224324;23;20184;-91
2022/03/08 08:42:23;;;;;;;11.13;7.53;;;5.20;1.00;;;;;;6196411;23;20594;-91
2022/03/08 08:44:49;;;;;;;11.20;8.00;;;5.10;1.00;;;;;;6169910;23;20153;-92
2022/03/08 08:47:15;;;;;;;13.03;7.87;;;5.30;1.00;;;;;;6223876;23;20137;-90
2022/03/08 08:49:41;;;;;;;9.23;7.30;;;5.60;1.00;;;;;;6170583;23;20275;-88
2022/03/08 08:52:06;;;;;;;17.03;8.57;;;5.70;1.00;;;;;;6197406;23;20650;-89
2022/03/08 08:54:33;;;;;;;14.00;7.73;;;5.90;1.00;;;;;;6223688;23;20148;-91
2022/03/08 08:56:59;;;;;;;9.97;7.13;;;6.10;1.00;;;;;;6170638;23;20157;-89
2022/03/08 08:59:25;;;;;;;11.20;7.37;;;6.30;1.00;;;;;;6196944;23;20178;-87
2022/03/08 09:01:51;;;;;;;8.33;6.73;;;6.40;1.00;;;;;;6198418;23;20153;-88
2022/03/08 09:04:17;;;;;;;9.63;6.83;;;6.60;1.00;;;;;;6213822;22;20148;-87
2022/03/08 09:06:42;;;;;;;8.20;7.00;;;6.60;1.00;;;;;;6218691;23;20161;-88
2022/03/08 09:09:09;;;;;;;10.60;7.37;;;6.60;1.00;;;;;;6209372;23;20274;-87
2022/03/08 09:11:35;;;;;;;11.70;7.47;;;6.50;1.00;;;;;;6215484;23;20180;-90
2022/03/08 09:14:13;;;;;;;10.90;7.03;;;6.40;1.00;;;;;;6225504;23;20137;-90
2022/03/08 09:16:39;;;;;;;10.50;7.73;;;6.50;1.00;;;;;;6198588;23;20163;-91
2022/03/08 09:19:04;;;;;;;11.40;7.83;;;6.50;1.00;;;;;;6199488;23;20149;-91
2022/03/08 09:21:30;;;;;;;10.33;7.30;;;6.60;1.00;;;;;;6200883;23;20173;-96
2022/03/08 09:23:56;;;;;;;8.70;7.30;;;6.90;1.00;;;;;;6173832;23;20156;-93
2022/03/08 09:26:22;;;;;;;9.00;6.77;;;6.90;1.00;;;;;;6175308;23;20160;-87
2022/03/08 09:28:47;;;;;;;9.40;7.67;;;7.20;1.00;;;;;;6215399;23;20208;-87
2022/03/08 09:31:45;;;;;;;11.50;7.87;;;7.30;1.00;;;;;;6231980;23;20479;-89
2022/03/08 09:34:10;;;;;;;9.83;6.73;;;7.40;1.00;;;;;;6199066;23;20203;-91
2022/03/08 09:36:37;;;;;;;8.83;7.50;;;7.50;1.00;;;;;;6198752;23;20526;-94
2022/03/08 09:39:06;;;;;;;11.53;7.17;;;7.30;1.00;;;;;;6199973;23;20149;-90
2022/03/08 09:41:32;;;;;;;10.13;7.47;;;7.50;1.00;;;;;;6200135;23;20154;-90
2022/03/08 09:43:59;;;;;;;11.10;7.27;;;7.60;1.00;;;;;;6180150;23;20210;-92
2022/03/08 09:46:27;;;;;;;9.93;7.60;;;7.80;1.00;;;;;;6234026;23;20542;-92
2022/03/08 09:48:54;;;;;;;9.43;7.43;;;7.70;1.00;;;;;;6214669;23;20207;-86
2022/03/08 09:51:22;;;;;;;10.07;7.07;;;8.00;1.00;;;;;;6215407;23;20138;-85
2022/03/08 09:53:54;;;;;;;11.20;6.50;;;7.80;1.00;;;;;;6213962;23;20200;-91
2022/03/08 09:56:21;;;;;;;10.50;7.20;;;7.60;1.00;;;;;;6186875;23;20186;-90
2022/03/08 09:58:48;;;;;;;12.07;6.50;;;7.40;1.00;;;;;;6213563;23;20586;-87
2022/03/08 10:01:14;;;;;;;9.03;6.60;;;7.80;1.00;;;;;;6215343;23;20161;-94
2022/03/08 10:03:46;;;;;;;11.70;7.37;;;7.90;1.00;;;;;;6189477;23;20153;-93
2022/03/08 10:06:12;;;;;;;10.33;6.93;;;8.10;1.00;;;;;;6201970;22;20149;-93
2022/03/08 10:08:38;;;;;;;16.07;7.90;;;7.90;1.00;;;;;;6230883;23;20173;-92
2022/03/08 10:11:12;;;;;;;8.13;7.00;;;8.10;1.00;;;;;;6198674;23;20227;-93
2022/03/08 10:13:50;;;;;;;8.67;6.53;;;8.20;1.00;;;;;;6202734;23;20195;-95
2022/03/08 10:16:27;;;;;;;9.10;7.47;;;8.20;1.00;;;;;;6203251;23;20157;-93
2022/03/08 10:18:58;;;;;;;11.30;8.23;;;8.40;1.00;;;;;;6203137;23;20137;-94
2022/03/08 10:21:25;;;;;;;8.83;7.07;;;8.40;1.00;;;;;;6205212;23;20192;-93
2022/03/08 10:23:52;;;;;;;15.90;7.93;;;8.60;1.00;;;;;;6201420;23;20165;-86
2022/03/08 10:26:19;;;;;;;10.43;8.07;;;8.70;1.00;;;;;;6209376;23;20625;-88
2022/03/08 10:28:49;;;;;;;10.13;7.30;;;8.50;1.00;;;;;;6203279;23;20256;-88
2022/03/08 10:31:16;;;;;;;10.47;7.27;;;8.70;1.00;;;;;;6209053;22;20153;-86
2022/03/08 10:33:44;;;;;;;13.23;7.60;;;8.60;1.00;;;;;;6200348;23;20175;-88
2022/03/08 10:36:17;;;;;;;11.00;7.47;;;8.70;1.00;;;;;;6203910;23;20156;-89
2022/03/08 10:39:13;;;;;;;9.13;7.13;;;8.90;1.00;;;;;;6178907;23;20675;-93
2022/03/08 10:42:06;;;;;;;11.77;6.80;;;8.90;1.00;;;;;;6234662;23;20196;-93
2022/03/08 10:44:36;;;;;;;8.33;6.97;;;8.90;1.00;;;;;;6200039;23;20168;-90
2022/03/08 10:47:03;;;;;;;9.43;6.67;;;8.60;1.00;;;;;;6198508;23;20164;-92
2022/03/08 10:49:29;;;;;;;8.20;7.27;;;8.50;1.00;;;;;;6211099;22;20211;-89
2022/03/08 10:52:05;;;;;;;11.03;7.60;;;8.70;1.00;;;;;;6213157;23;20165;-92
2022/03/08 10:54:34;;;;;;;9.93;6.63;;;9.00;1.00;;;;;;6204064;23;20153;-93
2022/03/08 10:57:00;;;;;;;9.30;6.63;;;9.20;1.00;;;;;;6203393;23;20172;-96
2022/03/08 10:59:26;;;;;;;12.10;7.83;;;9.20;1.00;;;;;;6202369;23;20168;-95
2022/03/08 11:01:52;;;;;;;9.60;7.30;;;9.20;1.00;;;;;;6199534;23;20665;-95
2022/03/08 11:04:23;;;;;;;17.67;7.80;;;9.30;1.00;;;;;;6204101;23;20280;-93
2022/03/08 11:06:52;;;;;;;11.70;7.43;;;9.60;1.00;;;;;;6238336;23;20129;-88
2022/03/08 11:09:19;;;;;;;8.13;6.67;;;9.50;1.00;;;;;;6209272;23;20188;-89
2022/03/08 11:11:45;;;;;;;10.13;7.70;;;9.70;1.00;;;;;;6207237;23;20161;-88
2022/03/08 11:14:12;;;;;;;8.23;6.50;;;9.90;1.00;;;;;;6184800;23;20161;-88
2022/03/08 11:16:39;;;;;;;10.97;6.30;;;10.00;1.00;;;;;;6226634;23;20160;-88
2022/03/08 11:19:07;;;;;;;8.93;7.23;;;10.20;1.00;;;;;;6174561;23;20157;-88
2022/03/08 11:21:35;;;;;;;9.63;7.00;;;10.30;1.00;;;;;;6197710;23;20176;-89
2022/03/08 11:24:04;;;;;;;9.90;6.77;;;10.30;1.00;;;;;;6227119;23;20578;-87
2022/03/08 11:26:30;;;;;;;11.00;6.97;;;10.40;1.00;;;;;;6178328;23;20168;-87
2022/03/08 11:29:04;;;;;;;8.13;6.67;;;10.10;1.00;;;;;;6229720;23;20196;-90
2022/03/08 11:31:34;;;;;;;8.17;6.17;;;9.80;1.00;;;;;;6177721;23;20597;-89
2022/03/08 11:34:15;;;;;;;10.60;6.90;;;10.20;1.00;;;;;;6197282;23;20168;-90
2022/03/08 11:37:03;;;;;;;17.90;7.90;;;10.20;1.00;;;;;;6197845;23;20160;-90
2022/03/08 11:39:30;;;;;;;10.40;6.83;;;10.30;1.00;;;;;;6176532;23;20171;-90
2022/03/08 11:42:20;;;;;;;6.83;5.80;;;10.10;1.00;;;;;;6196248;23;20157;-89
2022/03/08 11:45:11;;;;;;;8.00;7.00;;;10.00;1.00;;;;;;6195149;23;20538;-89
2022/03/08 11:47:55;;;;;;;9.77;6.53;;;9.80;1.00;;;;;;6195191;23;20156;-89
2022/03/08 11:50:44;;;;;;;8.23;6.83;;;10.00;1.00;;;;;;6195400;23;20184;-89
2022/03/08 11:53:25;;;;;;;8.23;5.90;;;10.10;1.00;;;;;;6198755;23;20180;-89
2022/03/08 11:55:56;;;;;;;9.40;6.27;;;10.50;1.00;;;;;;6171386;23;20157;-88
2022/03/08 11:58:40;;;;;;;8.50;5.90;;;10.50;1.00;;;;;;6197388;23;20180;-89
2022/03/08 12:01:07;;;;;;;7.43;5.90;;;10.40;1.00;;;;;;6197217;23;20141;-88
2022/03/08 12:03:36;;;;;;;8.97;5.97;;;10.40;1.00;;;;;;6206041;23;20185;-94
2022/03/08 12:06:07;;;;;;;7.50;6.13;;;10.40;1.00;;;;;;6207496;23;20148;-95
2022/03/08 12:08:44;;;;;;;7.57;5.80;;;10.20;1.00;;;;;;6217611;23;20220;-87
2022/03/08 12:11:59;;;;;;;9.03;5.83;;;10.40;1.00;;;;;;6212054;23;20169;-93
2022/03/08 12:14:29;;;;;;;8.07;6.00;;;10.40;1.00;;;;;;6203545;22;20145;-92
2022/03/08 12:17:18;;;;;;;10.43;5.73;;;10.40;1.00;;;;;;6219134;22;20164;-90
2022/03/08 12:19:45;;;;;;;8.47;5.83;;;10.00;1.00;;;;;;6218743;22;20148;-89
2022/03/08 12:22:18;;;;;;;9.73;5.80;;;9.80;1.00;;;;;;6237609;22;20149;-95
2022/03/08 12:24:55;;;;;;;7.70;5.33;;;9.80;1.00;;;;;;6186832;23;20199;-94
2022/03/08 12:27:24;;;;;;;8.87;5.77;;;9.90;1.00;;;;;;6237697;22;20133;-90
2022/03/08 12:29:56;;;;;;;8.27;5.80;;;10.00;1.00;;;;;;6218870;22;20173;-88
2022/03/08 12:32:23;;;;;;;7.57;5.87;;;10.30;1.00;;;;;;6219045;22;20147;-85
2022/03/08 12:34:51;;;;;;;8.00;5.90;;;10.60;1.00;;;;;;6238010;22;20173;-87
2022/03/08 12:37:50;;;;;;;9.23;7.30;;;10.60;1.00;;;;;;6202538;23;20493;-89
2022/03/08 12:40:45;;;;;;;8.33;6.07;;;10.80;1.00;;;;;;6199212;23;20157;-89
2022/03/08 12:43:12;;;;;;;9.20;6.47;;;11.20;1.00;;;;;;6201738;23;20219;-89
2022/03/08 12:45:48;;;;;;;8.07;6.23;;;11.30;1.00;;;;;;6227689;23;20457;-87
2022/03/08 12:48:21;;;;;;;7.67;5.93;;;11.50;1.00;;;;;;6201584;23;20149;-89
2022/03/08 12:50:53;;;;;;;7.50;5.90;;;11.80;1.00;;;;;;6229094;23;20168;-94
2022/03/08 12:53:25;;;;;;;9.63;6.40;;;11.60;1.00;;;;;;6188750;23;20201;-87
2022/03/08 12:56:00;;;;;;;8.70;6.27;;;11.70;99.90;;;;;;6241837;22;20183;-86
2022/03/08 12:58:32;;;;;;;11.40;6.33;;;11.90;99.90;;;;;;6208799;23;20136;-88
2022/03/08 13:01:02;;;;;;;7.20;5.50;;;12.00;99.90;;;;;;6227810;23;20440;-93
2022/03/08 13:03:31;;;;;;;10.40;6.03;;;11.80;99.90;;;;;;6174372;23;20184;-88
2022/03/08 13:05:59;;;;;;;7.70;6.00;;;11.80;99.90;;;;;;6172258;23;20242;-88
2022/03/08 13:08:27;;;;;;;7.23;5.93;;;11.90;99.90;;;;;;6199131;23;20173;-88
2022/03/08 13:10:57;;;;;;;9.03;6.47;;;12.00;99.90;;;;;;6197039;23;20145;-87
2022/03/08 13:13:25;;;;;;;9.67;6.43;;;11.90;99.90;;;;;;6228016;23;20133;-89
2022/03/08 13:15:51;;;;;;;7.93;6.60;;;12.10;99.90;;;;;;6211710;23;20145;-89
2022/03/08 13:18:30;;;;;;;8.47;6.63;;;12.30;99.90;;;;;;6201630;23;20157;-87
2022/03/08 13:21:04;;;;;;;9.07;6.73;;;12.20;99.90;;;;;;6196885;23;20601;-91
2022/03/08 13:23:35;;;;;;;11.03;6.73;;;12.20;99.90;;;;;;6197296;23;20153;-88
2022/03/08 13:26:07;;;;;;;8.50;6.33;;;12.20;99.90;;;;;;6223514;22;20149;-88
2022/03/08 13:28:40;;;;;;;9.03;6.50;;;12.10;99.90;;;;;;6197729;23;20247;-90
2022/03/08 13:31:08;;;;;;;9.03;6.10;;;12.40;99.90;;;;;;6182449;22;20133;-87
2022/03/08 13:33:45;;;;;;;13.57;7.13;;;12.40;99.90;;;;;;6218353;23;20145;-89
2022/03/08 13:36:15;;;;;;;7.90;6.67;;;12.50;99.90;;;;;;6191920;22;20192;-87
2022/03/08 13:38:56;;;;;;;8.87;6.53;;;12.70;99.90;;;;;;6218355;22;20206;-87
2022/03/08 13:41:27;;;;;;;8.70;5.70;;;12.90;99.90;;;;;;6212350;23;20201;-88
2022/03/08 13:44:18;;;;;;;7.87;6.43;;;12.80;99.90;;;;;;6213935;23;20148;-87
2022/03/08 13:46:46;;;;;;;9.00;5.87;;;12.70;99.90;;;;;;6212462;23;20258;-90
2022/03/08 13:49:23;;;;;;;11.57;7.10;;;12.70;99.90;;;;;;6214892;23;20199;-90
2022/03/08 13:51:49;;;;;;;9.57;6.30;;;12.90;99.90;;;;;;6211847;23;20157;-91
2022/03/08 13:54:19;;;;;;;8.60;6.63;;;12.90;99.90;;;;;;6211116;23;20179;-90
2022/03/08 13:56:55;;;;;;;9.97;6.70;;;13.00;99.90;;;;;;6212616;23;20156;-89
2022/03/08 13:59:53;;;;;;;10.37;6.03;;;12.90;99.90;;;;;;6213902;23;20149;-89
2022/03/08 14:02:20;;;;;;;10.33;6.43;;;12.70;99.90;;;;;;6163205;23;20225;-91
2022/03/08 14:04:46;;;;;;;8.50;6.50;;;12.90;99.90;;;;;;6207245;23;20161;-92
2022/03/08 14:07:20;;;;;;;10.63;6.60;;;13.00;99.90;;;;;;6213735;22;20153;-92
2022/03/08 14:10:04;;;;;;;8.00;6.97;;;12.80;99.90;;;;;;6233870;23;20673;-94
2022/03/08 14:12:46;;;;;;;9.47;7.30;;;12.80;99.90;;;;;;6207872;23;20153;-90
2022/03/08 14:15:12;;;;;;;9.07;6.50;;;12.80;99.90;;;;;;6206506;23;20188;-91
2022/03/08 14:17:39;;;;;;;8.73;6.60;;;13.00;99.90;;;;;;6207301;23;20149;-92
2022/03/08 14:20:19;;;;;;;14.13;7.03;;;13.30;99.90;;;;;;6184827;23;20177;-88
2022/03/08 14:23:03;;;;;;;8.20;6.60;;;13.40;99.90;;;;;;6211089;23;20156;-94
2022/03/08 14:25:29;;;;;;;9.30;6.47;;;13.40;99.90;;;;;;6204390;23;20153;-91
2022/03/08 14:27:57;;;;;;;7.30;6.43;;;13.50;99.90;;;;;;6202801;23;20209;-92
2022/03/08 14:30:26;;;;;;;8.30;6.67;;;13.50;99.90;;;;;;6231021;22;20193;-89
2022/03/08 14:33:12;;;;;;;10.53;6.93;;;13.60;99.90;;;;;;6205038;23;20204;-92
2022/03/08 14:35:39;;;;;;;8.60;6.80;;;13.70;99.90;;;;;;6185033;23;20177;-88
2022/03/08 14:38:08;;;;;;;8.10;7.00;;;13.30;99.90;;;;;;6207669;23;20201;-93
2022/03/08 14:40:43;;;;;;;15.07;7.30;;;13.50;99.90;;;;;;6207545;23;20236;-93
2022/03/08 14:43:10;;;;;;;12.03;7.13;;;13.70;99.90;;;;;;6208213;23;20159;-94
2022/03/08 14:45:37;;;;;;;10.57;7.23;;;13.70;99.90;;;;;;6212144;23;20153;-94
2022/03/08 14:48:11;;;;;;;9.57;7.10;;;13.80;99.90;;;;;;6183423;23;20157;-94
2022/03/08 14:50:38;;;;;;;8.53;6.33;;;13.20;99.90;;;;;;6207719;23;20159;-95
2022/03/08 14:53:04;;;;;;;10.83;7.50;;;13.30;99.90;;;;;;6213226;22;20149;-88
2022/03/08 14:55:30;;;;;;;12.13;7.03;;;13.60;99.90;;;;;;6217503;22;20142;-88
2022/03/08 14:58:03;;;;;;;8.47;7.20;;;13.80;99.90;;;;;;6217455;22;20153;-88
2022/03/08 15:00:29;;;;;;;11.83;7.10;;;14.10;99.90;;;;;;6217113;22;20153;-87
2022/03/08 15:02:55;;;;;;;11.60;7.87;;;14.10;99.90;;;;;;6204760;23;20165;-89
2022/03/08 15:05:21;;;;;;;8.53;6.67;;;14.00;99.90;;;;;;6199751;23;20160;-92
2022/03/08 15:07:56;;;;;;;7.07;6.37;;;13.60;99.90;;;;;;6201515;23;20146;-93
2022/03/08 15:10:27;;;;;;;11.17;7.70;;;13.30;99.90;;;;;;6225174;23;20192;-92
2022/03/08 15:12:53;;;;;;;8.00;6.83;;;13.40;99.90;;;;;;6226002;23;20134;-92
2022/03/08 15:15:20;;;;;;;10.87;7.37;;;13.90;99.90;;;;;;6204434;23;20165;-86
2022/03/08 15:17:47;;;;;;;11.17;7.43;;;14.30;99.90;;;;;;6194919;23;20142;-86
2022/03/08 15:20:13;;;;;;;10.23;6.83;;;15.00;99.90;;;;;;6195849;23;20247;-87
2022/03/08 15:22:39;;;;;;;12.00;6.57;;;15.30;99.90;;;;;;6194288;23;20154;-86
2022/03/08 15:25:09;;;;;;;14.90;7.27;;;15.90;99.90;;;;;;6196414;23;20154;-86
2022/03/08 15:27:36;;;;;;;8.47;7.03;;;16.80;99.90;;;;;;6198669;23;20141;-86
2022/03/08 15:30:05;;;;;;;8.60;6.80;;;17.80;99.90;;;;;;6196281;23;20177;-87
2022/03/08 15:32:31;;;;;;;8.53;7.50;;;18.50;99.90;;;;;;6222619;22;20247;-88
2022/03/08 15:34:56;;;;;;;10.80;7.13;;;19.30;99.90;;;;;;6194956;23;20184;-90
2022/03/08 15:37:22;;;;;;;13.13;8.13;;;19.80;99.90;;;;;;6196991;23;20149;-88
2022/03/08 15:39:48;;;;;;;8.60;6.93;;;20.10;99.90;;;;;;6197266;23;20478;-89
2022/03/08 15:42:15;;;;;;;9.20;7.13;;;19.80;99.90;;;;;;6200193;23;20477;-91
2022/03/08 15:44:43;;;;;;;11.77;7.20;;;20.10;99.90;;;;;;6201789;23;20187;-88
2022/03/08 15:47:10;;;;;;;8.30;6.60;;;20.20;99.90;;;;;;6172273;23;20149;-88
2022/03/08 15:49:41;;;;;;;7.60;6.27;;;21.10;99.90;;;;;;6196601;23;20188;-90
2022/03/08 15:52:08;;;;;;;19.97;8.30;;;21.60;99.90;;;;;;6196861;23;20153;-88
2022/03/08 15:54:34;;;;;;;9.43;6.77;;;21.90;99.90;;;;;;6211983;22;20146;-94
2022/03/08 15:57:03;;;;;;;8.50;6.77;;;21.70;99.90;;;;;;6215623;23;20250;-88
2022/03/08 15:59:29;;;;;;;11.10;7.03;;;21.10;99.90;;;;;;6210283;23;20211;-88
2022/03/08 16:01:54;;;;;;;7.47;6.50;;;21.20;99.90;;;;;;6199393;23;20206;-87
2022/03/08 16:04:27;;;;;;;9.30;7.00;;;21.30;99.90;;;;;;6199429;23;20217;-88
2022/03/08 16:06:59;;;;;;;15.17;13.70;;;21.20;99.90;;;;;;6200126;23;20174;-87
2022/03/08 16:09:29;;;;;;;11.13;6.27;;;21.50;99.90;;;;;;6196749;23;20195;-91
2022/03/08 16:11:54;;;;;;;7.57;6.27;;;21.60;99.90;;;;;;6197783;23;20202;-90
2022/03/08 16:14:20;;;;;;;8.13;5.83;;;21.50;99.90;;;;;;6227170;23;20235;-87
2022/03/08 16:16:52;;;;;;;6.83;5.87;;;21.30;99.90;;;;;;6200416;23;20177;-89
2022/03/08 16:19:19;;;;;;;6.83;5.90;;;20.70;99.90;;;;;;6183962;23;20160;-86
2022/03/08 16:21:47;;;;;;;6.20;5.50;;;20.50;99.90;;;;;;6184350;23;20232;-87
2022/03/08 16:24:16;;;;;;;10.33;7.07;;;20.50;99.90;;;;;;6205518;23;20156;-89